sensor_id;sensor_type;location;lat;lon;timestamp;pressure;altitude;pressure_sealevel;temperature;humidity
46347;BME280;32057;47.830;19.046;2024-03-02T00:00:15;99642.34;;;8.53;100.00
46347;BME280;32057;47.830;19.046;2024-03-02T00:02:45;99643.88;;;8.42;100.00
46347;BME280;32057;47.830;19.046;2024-03-02T00:05:12;99635.09;;;8.35;100.00
46347;BME280;32057;47.830;19.046;2024-03-02T00:07:58;99642.13;;;8.43;100.00
46347;BME280;32057;47.830;19.046;2024-03-02T00:10:31;99639.72;;;8.52;100.00
46347;BME280;32057;47.830;19.046;2024-03-02T00:13:02;99633.78;;;8.57;100.00
46347;BME280;32057;47.830;19.046;2024-03-02T00:18:14;99635.47;;;8.55;100.00
46347;BME280;32057;47.830;19.046;2024-03-02T00:20:41;99637.19;;;8.56;100.00
46347;BME280;32057;47.830;19.046;2024-03-02T00:23:08;99638.88;;;8.54;100.00
46347;BME280;32057;47.830;19.046;2024-03-02T00:25:42;99641.31;;;8.44;100.00
46347;BME280;32057;47.830;19.046;2024-03-02T00:28:25;99651.16;;;8.17;100.00
46347;BME280;32057;47.830;19.046;2024-03-02T00:31:04;99646.31;;;7.89;100.00
46347;BME280;32057;47.830;19.046;2024-03-02T00:33:35;99640.91;;;7.80;100.00
46347;BME280;32057;47.830;19.046;2024-03-02T00:36:04;99633.03;;;7.73;100.00
46347;BME280;32057;47.830;19.046;2024-03-02T00:38:31;99628.66;;;7.71;100.00
46347;BME280;32057;47.830;19.046;2024-03-02T00:41:00;99643.22;;;7.66;100.00
46347;BME280;32057;47.830;19.046;2024-03-02T00:43:41;99644.47;;;7.44;100.00
46347;BME280;32057;47.830;19.046;2024-03-02T00:46:08;99639.88;;;7.30;100.00
46347;BME280;32057;47.830;19.046;2024-03-02T00:48:34;99639.81;;;7.27;100.00
46347;BME280;32057;47.830;19.046;2024-03-02T00:51:03;99644.22;;;7.31;100.00
46347;BME280;32057;47.830;19.046;2024-03-02T00:53:30;99644.13;;;7.28;100.00
46347;BME280;32057;47.830;19.046;2024-03-02T00:55:56;99635.56;;;7.31;100.00
46347;BME280;32057;47.830;19.046;2024-03-02T00:58:21;99639.19;;;7.37;100.00
46347;BME280;32057;47.830;19.046;2024-03-02T01:00:47;99641.13;;;7.48;100.00
46347;BME280;32057;47.830;19.046;2024-03-02T01:03:12;99640.25;;;7.49;100.00
46347;BME280;32057;47.830;19.046;2024-03-02T01:05:41;99632.38;;;7.43;100.00
46347;BME280;32057;47.830;19.046;2024-03-02T01:08:07;99634.03;;;7.41;100.00
46347;BME280;32057;47.830;19.046;2024-03-02T01:10:32;99635.72;;;7.37;100.00
46347;BME280;32057;47.830;19.046;2024-03-02T01:12:58;99628.00;;;7.40;100.00
46347;BME280;32057;47.830;19.046;2024-03-02T01:15:23;99626.56;;;7.53;100.00
46347;BME280;32057;47.830;19.046;2024-03-02T01:17:48;99614.66;;;7.61;100.00
46347;BME280;32057;47.830;19.046;2024-03-02T01:20:14;99621.69;;;7.68;100.00
46347;BME280;32057;47.830;19.046;2024-03-02T01:22:39;99623.56;;;7.75;100.00
46347;BME280;32057;47.830;19.046;2024-03-02T01:25:05;99627.69;;;7.66;100.00
46347;BME280;32057;47.830;19.046;2024-03-02T01:27:30;99624.94;;;7.58;100.00
46347;BME280;32057;47.830;19.046;2024-03-02T01:29:56;99624.72;;;7.49;100.00
46347;BME280;32057;47.830;19.046;2024-03-02T01:32:21;99622.00;;;7.41;100.00
46347;BME280;32057;47.830;19.046;2024-03-02T01:34:47;99622.78;;;7.38;100.00
46347;BME280;32057;47.830;19.046;2024-03-02T01:37:12;99616.78;;;7.40;100.00
46347;BME280;32057;47.830;19.046;2024-03-02T01:39:37;99614.25;;;7.43;100.00
46347;BME280;32057;47.830;19.046;2024-03-02T01:42:03;99610.13;;;7.51;100.00
46347;BME280;32057;47.830;19.046;2024-03-02T01:44:28;99607.66;;;7.57;100.00
46347;BME280;32057;47.830;19.046;2024-03-02T01:46:53;99608.56;;;7.59;100.00
46347;BME280;32057;47.830;19.046;2024-03-02T01:49:19;99597.47;;;7.66;100.00
46347;BME280;32057;47.830;19.046;2024-03-02T01:51:44;99594.19;;;7.73;100.00
46347;BME280;32057;47.830;19.046;2024-03-02T01:54:09;99589.94;;;7.77;100.00
46347;BME280;32057;47.830;19.046;2024-03-02T01:56:35;99584.75;;;7.77;100.00
46347;BME280;32057;47.830;19.046;2024-03-02T01:59:01;99586.56;;;7.81;100.00
46347;BME280;32057;47.830;19.046;2024-03-02T02:01:26;99575.22;;;7.76;100.00
46347;BME280;32057;47.830;19.046;2024-03-02T02:03:52;99588.16;;;7.74;100.00
46347;BME280;32057;47.830;19.046;2024-03-02T02:06:17;99581.09;;;7.66;100.00
46347;BME280;32057;47.830;19.046;2024-03-02T02:08:42;99581.78;;;7.57;100.00
46347;BME280;32057;47.830;19.046;2024-03-02T02:11:08;99574.78;;;7.53;100.00
46347;BME280;32057;47.830;19.046;2024-03-02T02:13:33;99580.69;;;7.46;100.00
46347;BME280;32057;47.830;19.046;2024-03-02T02:16:08;99584.91;;;7.42;100.00
46347;BME280;32057;47.830;19.046;2024-03-02T02:18:34;99581.38;;;7.38;100.00
46347;BME280;32057;47.830;19.046;2024-03-02T02:21:01;99577.88;;;7.36;100.00
46347;BME280;32057;47.830;19.046;2024-03-02T02:23:26;99585.63;;;7.35;100.00
46347;BME280;32057;47.830;19.046;2024-03-02T02:25:51;99595.13;;;7.36;100.00
46347;BME280;32057;47.830;19.046;2024-03-02T02:28:17;99595.22;;;7.41;100.00
46347;BME280;32057;47.830;19.046;2024-03-02T02:30:42;99602.22;;;7.45;100.00
46347;BME280;32057;47.830;19.046;2024-03-02T02:33:08;99597.97;;;7.48;100.00
46347;BME280;32057;47.830;19.046;2024-03-02T02:35:33;99602.38;;;7.51;100.00
46347;BME280;32057;47.830;19.046;2024-03-02T02:37:58;99605.78;;;7.50;100.00
46347;BME280;32057;47.830;19.046;2024-03-02T02:40:24;99600.72;;;7.56;100.00
46347;BME280;32057;47.830;19.046;2024-03-02T02:42:50;99592.31;;;7.66;100.00
46347;BME280;32057;47.830;19.046;2024-03-02T02:45:17;99587.34;;;7.78;100.00
46347;BME280;32057;47.830;19.046;2024-03-02T02:47:43;99591.75;;;7.81;100.00
46347;BME280;32057;47.830;19.046;2024-03-02T02:50:09;99589.31;;;7.89;100.00
46347;BME280;32057;47.830;19.046;2024-03-02T02:52:36;99591.97;;;7.93;100.00
46347;BME280;32057;47.830;19.046;2024-03-02T02:55:03;99592.03;;;7.95;100.00
46347;BME280;32057;47.830;19.046;2024-03-02T02:57:29;99592.91;;;7.97;100.00
46347;BME280;32057;47.830;19.046;2024-03-02T02:59:56;99591.19;;;7.97;100.00
46347;BME280;32057;47.830;19.046;2024-03-02T03:02:21;99602.34;;;7.93;100.00
46347;BME280;32057;47.830;19.046;2024-03-02T03:04:47;99602.22;;;7.87;100.00
46347;BME280;32057;47.830;19.046;2024-03-02T03:07:12;99606.41;;;7.81;100.00
46347;BME280;32057;47.830;19.046;2024-03-02T03:09:37;99608.03;;;7.75;100.00
46347;BME280;32057;47.830;19.046;2024-03-02T03:12:04;99610.56;;;7.72;100.00
46347;BME280;32057;47.830;19.046;2024-03-02T03:14:29;99607.09;;;7.72;100.00
46347;BME280;32057;47.830;19.046;2024-03-02T03:16:54;99602.84;;;7.75;100.00
46347;BME280;32057;47.830;19.046;2024-03-02T03:19:20;99605.50;;;7.78;100.00
46347;BME280;32057;47.830;19.046;2024-03-02T03:21:45;99610.75;;;7.82;100.00
46347;BME280;32057;47.830;19.046;2024-03-02T03:24:10;99609.97;;;7.86;100.00
46347;BME280;32057;47.830;19.046;2024-03-02T03:26:36;99606.50;;;7.87;100.00
46347;BME280;32057;47.830;19.046;2024-03-02T03:29:02;99606.34;;;7.77;100.00
46347;BME280;32057;47.830;19.046;2024-03-02T03:31:28;99601.00;;;7.70;100.00
46347;BME280;32057;47.830;19.046;2024-03-02T03:33:53;99605.22;;;7.65;100.00
46347;BME280;32057;47.830;19.046;2024-03-02T03:36:18;99612.19;;;7.67;100.00
46347;BME280;32057;47.830;19.046;2024-03-02T03:38:44;99614.03;;;7.74;100.00
46347;BME280;32057;47.830;19.046;2024-03-02T03:41:09;99615.06;;;7.81;100.00
46347;BME280;32057;47.830;19.046;2024-03-02T03:43:35;99606.28;;;7.74;100.00
46347;BME280;32057;47.830;19.046;2024-03-02T03:46:01;99605.47;;;7.77;100.00
46347;BME280;32057;47.830;19.046;2024-03-02T03:48:27;99604.66;;;7.80;100.00
46347;BME280;32057;47.830;19.046;2024-03-02T03:50:56;99602.13;;;7.83;100.00
46347;BME280;32057;47.830;19.046;2024-03-02T03:53:21;99608.28;;;7.88;100.00
46347;BME280;32057;47.830;19.046;2024-03-02T03:55:47;99601.47;;;7.93;100.00
46347;BME280;32057;47.830;19.046;2024-03-02T03:58:14;99605.78;;;7.94;100.00
46347;BME280;32057;47.830;19.046;2024-03-02T04:00:41;99602.25;;;7.89;100.00
46347;BME280;32057;47.830;19.046;2024-03-02T04:03:07;99602.25;;;7.89;100.00
46347;BME280;32057;47.830;19.046;2024-03-02T04:05:32;99605.72;;;7.89;100.00
46347;BME280;32057;47.830;19.046;2024-03-02T04:07:57;99607.50;;;7.92;100.00
46347;BME280;32057;47.830;19.046;2024-03-02T04:10:22;99615.22;;;7.90;100.00
46347;BME280;32057;47.830;19.046;2024-03-02T04:12:49;99620.31;;;7.86;100.00
46347;BME280;32057;47.830;19.046;2024-03-02T04:15:15;99616.88;;;7.87;100.00
46347;BME280;32057;47.830;19.046;2024-03-02T04:17:41;99622.06;;;7.87;100.00
46347;BME280;32057;47.830;19.046;2024-03-02T04:20:06;99629.03;;;7.89;100.00
46347;BME280;32057;47.830;19.046;2024-03-02T04:22:33;99623.00;;;7.90;100.00
46347;BME280;32057;47.830;19.046;2024-03-02T04:25:00;99624.75;;;7.91;100.00
46347;BME280;32057;47.830;19.046;2024-03-02T04:27:25;99638.56;;;7.92;100.00
46347;BME280;32057;47.830;19.046;2024-03-02T04:29:51;99633.31;;;7.87;100.00
46347;BME280;32057;47.830;19.046;2024-03-02T04:32:16;99636.72;;;7.86;100.00
46347;BME280;32057;47.830;19.046;2024-03-02T04:34:42;99636.81;;;7.89;100.00
46347;BME280;32057;47.830;19.046;2024-03-02T04:37:08;99636.88;;;7.94;100.00
46347;BME280;32057;47.830;19.046;2024-03-02T04:39:35;99639.56;;;7.97;100.00
46347;BME280;32057;47.830;19.046;2024-03-02T04:42:00;99636.09;;;7.98;100.00
46347;BME280;32057;47.830;19.046;2024-03-02T04:44:25;99636.97;;;7.97;100.00
46347;BME280;32057;47.830;19.046;2024-03-02T04:46:51;99639.56;;;7.98;100.00
46347;BME280;32057;47.830;19.046;2024-03-02T04:49:16;99645.63;;;8.01;100.00
46347;BME280;32057;47.830;19.046;2024-03-02T04:51:41;99646.59;;;8.04;100.00
46347;BME280;32057;47.830;19.046;2024-03-02T04:54:07;99655.19;;;8.02;100.00
46347;BME280;32057;47.830;19.046;2024-03-02T04:56:32;99649.84;;;7.94;100.00
46347;BME280;32057;47.830;19.046;2024-03-02T04:58:58;99653.34;;;7.96;100.00
46347;BME280;32057;47.830;19.046;2024-03-02T05:01:23;99643.84;;;7.95;100.00
46347;BME280;32057;47.830;19.046;2024-03-02T05:03:48;99647.97;;;7.87;100.00
46347;BME280;32057;47.830;19.046;2024-03-02T05:06:14;99649.75;;;7.89;100.00
46347;BME280;32057;47.830;19.046;2024-03-02T05:08:39;99647.22;;;7.92;100.00
46347;BME280;32057;47.830;19.046;2024-03-02T05:11:04;99645.38;;;7.87;100.00
46347;BME280;32057;47.830;19.046;2024-03-02T05:13:48;99649.84;;;7.94;100.00
46347;BME280;32057;47.830;19.046;2024-03-02T05:16:14;99652.53;;;8.00;100.00
46347;BME280;32057;47.830;19.046;2024-03-02T05:18:39;99647.22;;;7.91;100.00
46347;BME280;32057;47.830;19.046;2024-03-02T05:21:04;99657.69;;;7.97;100.00
46347;BME280;32057;47.830;19.046;2024-03-02T05:23:30;99656.72;;;7.92;100.00
46347;BME280;32057;47.830;19.046;2024-03-02T05:25:56;99656.81;;;7.98;100.00
46347;BME280;32057;47.830;19.046;2024-03-02T05:28:21;99661.22;;;8.02;100.00
46347;BME280;32057;47.830;19.046;2024-03-02T05:30:46;99660.50;;;8.09;100.00
46347;BME280;32057;47.830;19.046;2024-03-02T05:33:12;99659.66;;;8.10;100.00
46347;BME280;32057;47.830;19.046;2024-03-02T05:35:37;99664.88;;;8.12;100.00
46347;BME280;32057;47.830;19.046;2024-03-02T05:38:03;99664.06;;;8.14;100.00
46347;BME280;32057;47.830;19.046;2024-03-02T05:40:28;99661.56;;;8.19;100.00
46347;BME280;32057;47.830;19.046;2024-03-02T05:42:54;99668.59;;;8.26;100.00
46347;BME280;32057;47.830;19.046;2024-03-02T05:45:19;99667.81;;;8.29;100.00
46347;BME280;32057;47.830;19.046;2024-03-02T05:47:44;99671.25;;;8.29;100.00
46347;BME280;32057;47.830;19.046;2024-03-02T05:50:09;99666.13;;;8.31;100.00
46347;BME280;32057;47.830;19.046;2024-03-02T05:52:35;99672.19;;;8.34;100.00
46347;BME280;32057;47.830;19.046;2024-03-02T05:55:00;99668.75;;;8.34;100.00
46347;BME280;32057;47.830;19.046;2024-03-02T05:57:25;99668.72;;;8.32;100.00
46347;BME280;32057;47.830;19.046;2024-03-02T06:00:11;99671.41;;;8.37;100.00
46347;BME280;32057;47.830;19.046;2024-03-02T06:02:39;99670.53;;;8.38;100.00
46347;BME280;32057;47.830;19.046;2024-03-02T06:05:06;99662.00;;;8.42;100.00
46347;BME280;32057;47.830;19.046;2024-03-02T06:07:32;99661.22;;;8.46;100.00
46347;BME280;32057;47.830;19.046;2024-03-02T06:09:57;99664.72;;;8.48;100.00
46347;BME280;32057;47.830;19.046;2024-03-02T06:12:23;99664.72;;;8.48;100.00
46347;BME280;32057;47.830;19.046;2024-03-02T06:14:49;99675.16;;;8.51;100.00
46347;BME280;32057;47.830;19.046;2024-03-02T06:17:14;99671.66;;;8.49;100.00
46347;BME280;32057;47.830;19.046;2024-03-02T06:19:39;99684.59;;;8.48;100.00
46347;BME280;32057;47.830;19.046;2024-03-02T06:22:05;99683.63;;;8.41;100.00
46347;BME280;32057;47.830;19.046;2024-03-02T06:24:30;99693.06;;;8.41;100.00
46347;BME280;32057;47.830;19.046;2024-03-02T06:26:56;99690.41;;;8.37;100.00
46347;BME280;32057;47.830;19.046;2024-03-02T06:29:21;99692.19;;;8.40;100.00
46347;BME280;32057;47.830;19.046;2024-03-02T06:31:47;99692.28;;;8.43;100.00
46347;BME280;32057;47.830;19.046;2024-03-02T06:34:12;99703.50;;;8.42;100.00
46347;BME280;32057;47.830;19.046;2024-03-02T06:36:38;99696.66;;;8.46;100.00
46347;BME280;32057;47.830;19.046;2024-03-02T06:39:05;99703.59;;;8.48;100.00
46347;BME280;32057;47.830;19.046;2024-03-02T06:41:30;99705.38;;;8.49;100.00
46347;BME280;32057;47.830;19.046;2024-03-02T06:43:56;99708.00;;;8.52;100.00
46347;BME280;32057;47.830;19.046;2024-03-02T06:46:25;99702.94;;;8.58;100.00
46347;BME280;32057;47.830;19.046;2024-03-02T06:48:50;99710.81;;;8.63;100.00
46347;BME280;32057;47.830;19.046;2024-03-02T06:51:15;99717.75;;;8.66;100.00
46347;BME280;32057;47.830;19.046;2024-03-02T06:53:42;99711.75;;;8.67;100.00
46347;BME280;32057;47.830;19.046;2024-03-02T06:56:07;99708.34;;;8.71;100.00
46347;BME280;32057;47.830;19.046;2024-03-02T06:58:33;99706.69;;;8.76;100.00
46347;BME280;32057;47.830;19.046;2024-03-02T07:01:02;99709.25;;;8.74;100.00
46347;BME280;32057;47.830;19.046;2024-03-02T07:03:27;99709.25;;;8.73;100.00
46347;BME280;32057;47.830;19.046;2024-03-02T07:05:58;99715.38;;;8.78;100.00
46347;BME280;32057;47.830;19.046;2024-03-02T07:08:24;99718.72;;;8.71;100.00
46347;BME280;32057;47.830;19.046;2024-03-02T07:10:49;99714.38;;;8.70;100.00
46347;BME280;32057;47.830;19.046;2024-03-02T07:13:14;99712.72;;;8.73;100.00
46347;BME280;32057;47.830;19.046;2024-03-02T07:15:40;99708.41;;;8.74;100.00
46347;BME280;32057;47.830;19.046;2024-03-02T07:18:23;99716.19;;;8.74;100.00
46347;BME280;32057;47.830;19.046;2024-03-02T07:20:49;99720.53;;;8.75;100.00
46347;BME280;32057;47.830;19.046;2024-03-02T07:23:15;99725.78;;;8.80;100.00
46347;BME280;32057;47.830;19.046;2024-03-02T07:25:40;99718.94;;;8.83;100.00
46347;BME280;32057;47.830;19.046;2024-03-02T07:28:05;99722.47;;;8.88;100.00
46347;BME280;32057;47.830;19.046;2024-03-02T07:30:32;99725.13;;;8.91;100.00
46347;BME280;32057;47.830;19.046;2024-03-02T07:32:58;99721.72;;;8.94;100.00
46347;BME280;32057;47.830;19.046;2024-03-02T07:35:24;99717.47;;;8.97;100.00
46347;BME280;32057;47.830;19.046;2024-03-02T07:37:53;99720.94;;;9.00;100.00
46347;BME280;32057;47.830;19.046;2024-03-02T07:40:19;99713.13;;;8.98;100.00
46347;BME280;32057;47.830;19.046;2024-03-02T07:42:45;99723.53;;;9.00;100.00
46347;BME280;32057;47.830;19.046;2024-03-02T07:45:10;99725.31;;;9.01;100.00
46347;BME280;32057;47.830;19.046;2024-03-02T07:47:36;99722.72;;;9.02;100.00
46347;BME280;32057;47.830;19.046;2024-03-02T07:50:02;99730.59;;;9.07;100.00
46347;BME280;32057;47.830;19.046;2024-03-02T07:52:28;99726.13;;;9.00;100.00
46347;BME280;32057;47.830;19.046;2024-03-02T07:54:53;99730.56;;;9.05;100.00
46347;BME280;32057;47.830;19.046;2024-03-02T07:57:19;99724.53;;;9.08;100.00
46347;BME280;32057;47.830;19.046;2024-03-02T07:59:44;99725.47;;;9.11;100.00
46347;BME280;32057;47.830;19.046;2024-03-02T08:02:10;99728.09;;;9.13;100.00
46347;BME280;32057;47.830;19.046;2024-03-02T08:04:36;99726.44;;;9.18;100.00
46347;BME280;32057;47.830;19.046;2024-03-02T08:07:02;99728.19;;;9.19;100.00
46347;BME280;32057;47.830;19.046;2024-03-02T08:09:28;99726.53;;;9.23;100.00
46347;BME280;32057;47.830;19.046;2024-03-02T08:11:53;99735.22;;;9.26;100.00
46347;BME280;32057;47.830;19.046;2024-03-02T08:14:18;99732.66;;;9.28;100.00
46347;BME280;32057;47.830;19.046;2024-03-02T08:16:46;99731.81;;;9.30;100.00
46347;BME280;32057;47.830;19.046;2024-03-02T08:19:11;99738.81;;;9.34;100.00
46347;BME280;32057;47.830;19.046;2024-03-02T08:21:37;99734.50;;;9.36;100.00
46347;BME280;32057;47.830;19.046;2024-03-02T08:24:02;99736.25;;;9.36;100.00
46347;BME280;32057;47.830;19.046;2024-03-02T08:26:28;99736.28;;;9.37;100.00
46347;BME280;32057;47.830;19.046;2024-03-02T08:28:57;99738.88;;;9.37;100.00
46347;BME280;32057;47.830;19.046;2024-03-02T08:31:23;99738.03;;;9.39;100.00
46347;BME280;32057;47.830;19.046;2024-03-02T08:33:48;99741.44;;;9.36;100.00
46347;BME280;32057;47.830;19.046;2024-03-02T08:36:13;99742.28;;;9.36;100.00
46347;BME280;32057;47.830;19.046;2024-03-02T08:38:39;99741.50;;;9.39;100.00
46347;BME280;32057;47.830;19.046;2024-03-02T08:41:04;99742.38;;;9.41;100.00
46347;BME280;32057;47.830;19.046;2024-03-02T08:43:30;99744.13;;;9.41;100.00
46347;BME280;32057;47.830;19.046;2024-03-02T08:45:56;99746.72;;;9.41;100.00
46347;BME280;32057;47.830;19.046;2024-03-02T08:48:21;99747.63;;;9.43;100.00
46347;BME280;32057;47.830;19.046;2024-03-02T08:50:46;99745.00;;;9.41;100.00
46347;BME280;32057;47.830;19.046;2024-03-02T08:53:12;99747.63;;;9.43;100.00
46347;BME280;32057;47.830;19.046;2024-03-02T08:55:37;99748.44;;;9.42;100.00
46347;BME280;32057;47.830;19.046;2024-03-02T08:58:03;99747.63;;;9.43;100.00
46347;BME280;32057;47.830;19.046;2024-03-02T09:00:29;99743.25;;;9.42;100.00
46347;BME280;32057;47.830;19.046;2024-03-02T09:02:55;99742.44;;;9.46;100.00
46347;BME280;32057;47.830;19.046;2024-03-02T09:05:20;99744.22;;;9.47;100.00
46347;BME280;32057;47.830;19.046;2024-03-02T09:07:45;99747.69;;;9.47;100.00
46347;BME280;32057;47.830;19.046;2024-03-02T09:10:11;99751.13;;;9.48;100.00
46347;BME280;32057;47.830;19.046;2024-03-02T09:12:37;99742.50;;;9.49;100.00
46347;BME280;32057;47.830;19.046;2024-03-02T09:15:03;99750.25;;;9.46;100.00
46347;BME280;32057;47.830;19.046;2024-03-02T09:17:29;99746.72;;;9.42;100.00
46347;BME280;32057;47.830;19.046;2024-03-02T09:19:55;99757.09;;;9.42;100.00
46347;BME280;32057;47.830;19.046;2024-03-02T09:22:20;99747.63;;;9.43;100.00
46347;BME280;32057;47.830;19.046;2024-03-02T09:24:45;99748.50;;;9.45;100.00
46347;BME280;32057;47.830;19.046;2024-03-02T09:27:11;99750.28;;;9.47;100.00
46347;BME280;32057;47.830;19.046;2024-03-02T09:29:37;99746.78;;;9.45;100.00
46347;BME280;32057;47.830;19.046;2024-03-02T09:32:02;99750.94;;;9.35;100.00
46347;BME280;32057;47.830;19.046;2024-03-02T09:34:27;99748.28;;;9.32;100.00
46347;BME280;32057;47.830;19.046;2024-03-02T09:36:53;99745.75;;;9.35;100.00
46347;BME280;32057;47.830;19.046;2024-03-02T09:39:18;99750.06;;;9.33;100.00
46347;BME280;32057;47.830;19.046;2024-03-02T09:41:44;99751.78;;;9.34;100.00
46347;BME280;32057;47.830;19.046;2024-03-02T09:44:10;99746.63;;;9.36;100.00
46347;BME280;32057;47.830;19.046;2024-03-02T09:46:35;99756.16;;;9.35;100.00
46347;BME280;32057;47.830;19.046;2024-03-02T09:49:02;99747.56;;;9.40;100.00
46347;BME280;32057;47.830;19.046;2024-03-02T09:51:27;99744.16;;;9.44;100.00
46347;BME280;32057;47.830;19.046;2024-03-02T09:53:54;99743.31;;;9.45;100.00
46347;BME280;32057;47.830;19.046;2024-03-02T09:56:21;99745.94;;;9.48;100.00
46347;BME280;32057;47.830;19.046;2024-03-02T09:58:46;99742.56;;;9.53;100.00
46347;BME280;32057;47.830;19.046;2024-03-02T10:01:12;99732.28;;;9.60;100.00
46347;BME280;32057;47.830;19.046;2024-03-02T10:03:38;99733.16;;;9.62;100.00
46347;BME280;32057;47.830;19.046;2024-03-02T10:06:24;99736.72;;;9.68;100.00
46347;BME280;32057;47.830;19.046;2024-03-02T10:08:50;99741.06;;;9.69;100.00
46347;BME280;32057;47.830;19.046;2024-03-02T10:11:29;99735.00;;;9.69;100.00
46347;BME280;32057;47.830;19.046;2024-03-02T10:14:10;99738.56;;;9.75;100.00
46347;BME280;32057;47.830;19.046;2024-03-02T10:16:40;99735.16;;;9.80;100.00
46347;BME280;32057;47.830;19.046;2024-03-02T10:19:16;99730.91;;;9.86;100.00
46347;BME280;32057;47.830;19.046;2024-03-02T10:21:48;99731.91;;;9.96;100.00
46347;BME280;32057;47.830;19.046;2024-03-02T10:24:15;99731.00;;;9.94;100.00
46347;BME280;32057;47.830;19.046;2024-03-02T10:26:40;99729.31;;;9.96;100.00
46347;BME280;32057;47.830;19.046;2024-03-02T10:29:08;99732.78;;;9.98;100.00
46347;BME280;32057;47.830;19.046;2024-03-02T10:31:33;99731.97;;;10.01;100.00
46347;BME280;32057;47.830;19.046;2024-03-02T10:33:59;99725.06;;;10.01;100.00
46347;BME280;32057;47.830;19.046;2024-03-02T10:36:25;99732.81;;;9.96;100.00
46347;BME280;32057;47.830;19.046;2024-03-02T10:38:51;99731.94;;;9.97;100.00
46347;BME280;32057;47.830;19.046;2024-03-02T10:41:23;99734.50;;;9.96;100.00
46347;BME280;32057;47.830;19.046;2024-03-02T10:43:50;99730.16;;;9.95;100.00
46347;BME280;32057;47.830;19.046;2024-03-02T10:46:19;99731.88;;;9.93;100.00
46347;BME280;32057;47.830;19.046;2024-03-02T10:48:45;99720.59;;;9.91;100.00
46347;BME280;32057;47.830;19.046;2024-03-02T10:51:11;99715.34;;;9.88;100.00
46347;BME280;32057;47.830;19.046;2024-03-02T10:53:37;99722.25;;;9.86;100.00
46347;BME280;32057;47.830;19.046;2024-03-02T10:56:31;99719.63;;;9.84;100.00
46347;BME280;32057;47.830;19.046;2024-03-02T11:01:47;99718.81;;;9.87;100.00
46347;BME280;32057;47.830;19.046;2024-03-02T11:04:16;99723.13;;;9.85;100.00
46347;BME280;32057;47.830;19.046;2024-03-02T11:06:49;99720.50;;;9.85;100.00
46347;BME280;32057;47.830;19.046;2024-03-02T11:09:16;99722.16;;;9.80;100.00
46347;BME280;32057;47.830;19.046;2024-03-02T11:11:43;99723.94;;;9.81;100.00
46347;BME280;32057;47.830;19.046;2024-03-02T11:14:16;99725.56;;;9.75;100.00
46347;BME280;32057;47.830;19.046;2024-03-02T11:16:42;99721.22;;;9.73;100.00
46347;BME280;32057;47.830;19.046;2024-03-02T11:19:11;99719.47;;;9.73;100.00
46347;BME280;32057;47.830;19.046;2024-03-02T11:21:37;99720.28;;;9.69;100.00
46347;BME280;32057;47.830;19.046;2024-03-02T11:26:47;99713.34;;;9.68;100.00
46347;BME280;32057;47.830;19.046;2024-03-02T11:32:02;99720.22;;;9.63;100.00
46347;BME280;32057;47.830;19.046;2024-03-02T11:34:30;99716.72;;;9.61;100.00
46347;BME280;32057;47.830;19.046;2024-03-02T11:36:55;99717.56;;;9.59;100.00
46347;BME280;32057;47.830;19.046;2024-03-02T11:39:21;99715.84;;;9.61;100.00
46347;BME280;32057;47.830;19.046;2024-03-02T11:41:46;99718.44;;;9.61;100.00
46347;BME280;32057;47.830;19.046;2024-03-02T11:44:12;99722.81;;;9.63;100.00
46347;BME280;32057;47.830;19.046;2024-03-02T11:46:39;99719.34;;;9.64;100.00
46347;BME280;32057;47.830;19.046;2024-03-02T11:49:04;99719.31;;;9.61;100.00
46347;BME280;32057;47.830;19.046;2024-03-02T11:51:35;99713.25;;;9.62;100.00
46347;BME280;32057;47.830;19.046;2024-03-02T11:54:02;99709.81;;;9.63;100.00
46347;BME280;32057;47.830;19.046;2024-03-02T11:56:30;99711.56;;;9.63;100.00
46347;BME280;32057;47.830;19.046;2024-03-02T11:58:56;99708.06;;;9.61;100.00
46347;BME280;32057;47.830;19.046;2024-03-02T12:01:22;99706.28;;;9.58;100.00
46347;BME280;32057;47.830;19.046;2024-03-02T12:03:48;99707.16;;;9.60;100.00
46347;BME280;32057;47.830;19.046;2024-03-02T12:06:14;99708.94;;;9.63;100.00
46347;BME280;32057;47.830;19.046;2024-03-02T12:08:40;99707.25;;;9.65;100.00
46347;BME280;32057;47.830;19.046;2024-03-02T12:11:13;99707.25;;;9.65;100.00
46347;BME280;32057;47.830;19.046;2024-03-02T12:13:38;99703.88;;;9.72;100.00
46347;BME280;32057;47.830;19.046;2024-03-02T12:16:04;99705.63;;;9.74;100.00
46347;BME280;32057;47.830;19.046;2024-03-02T12:18:30;99708.28;;;9.77;100.00
46347;BME280;32057;47.830;19.046;2024-03-02T12:20:55;99704.88;;;9.82;100.00
46347;BME280;32057;47.830;19.046;2024-03-02T12:23:24;99706.63;;;9.84;100.00
46347;BME280;32057;47.830;19.046;2024-03-02T12:25:53;99705.75;;;9.84;100.00
46347;BME280;32057;47.830;19.046;2024-03-02T12:28:33;99702.22;;;9.77;100.00
46347;BME280;32057;47.830;19.046;2024-03-02T12:31:04;99702.13;;;9.72;100.00
46347;BME280;32057;47.830;19.046;2024-03-02T12:33:30;99699.53;;;9.72;100.00
46347;BME280;32057;47.830;19.046;2024-03-02T12:35:57;99706.44;;;9.70;100.00
46347;BME280;32057;47.830;19.046;2024-03-02T12:38:23;99711.69;;;9.73;100.00
46347;BME280;32057;47.830;19.046;2024-03-02T12:40:51;99709.13;;;9.75;100.00
46347;BME280;32057;47.830;19.046;2024-03-02T12:43:16;99698.75;;;9.78;100.00
46347;BME280;32057;47.830;19.046;2024-03-02T12:45:42;99700.53;;;9.82;100.00
46347;BME280;32057;47.830;19.046;2024-03-02T12:48:07;99697.94;;;9.81;100.00
46347;BME280;32057;47.830;19.046;2024-03-02T12:50:33;99702.22;;;9.77;100.00
46347;BME280;32057;47.830;19.046;2024-03-02T12:52:58;99704.00;;;9.81;100.00
46347;BME280;32057;47.830;19.046;2024-03-02T12:55:24;99704.91;;;9.85;100.00
46347;BME280;32057;47.830;19.046;2024-03-02T12:57:51;99704.06;;;9.86;100.00